sensor_id;sensor_type;location;lat;lon;timestamp;temperature;humidity
23579;DHT22;11967;50.852;4.400;2023-11-21T00:00:16;13.30;99.90
23579;DHT22;11967;50.852;4.400;2023-11-21T00:02:44;13.30;99.90
23579;DHT22;11967;50.852;4.400;2023-11-21T00:05:14;13.20;99.90
23579;DHT22;11967;50.852;4.400;2023-11-21T00:07:40;13.30;99.90
23579;DHT22;11967;50.852;4.400;2023-11-21T00:10:07;13.20;99.90
23579;DHT22;11967;50.852;4.400;2023-11-21T00:12:34;13.20;99.90
23579;DHT22;11967;50.852;4.400;2023-11-21T00:15:00;13.20;99.90
23579;DHT22;11967;50.852;4.400;2023-11-21T00:17:26;13.20;99.90
23579;DHT22;11967;50.852;4.400;2023-11-21T00:19:52;13.20;99.90
23579;DHT22;11967;50.852;4.400;2023-11-21T00:22:19;13.30;99.90
23579;DHT22;11967;50.852;4.400;2023-11-21T00:24:45;13.30;99.90
23579;DHT22;11967;50.852;4.400;2023-11-21T00:27:11;13.40;99.90
23579;DHT22;11967;50.852;4.400;2023-11-21T00:29:37;13.30;99.90
23579;DHT22;11967;50.852;4.400;2023-11-21T00:32:04;13.30;99.90
23579;DHT22;11967;50.852;4.400;2023-11-21T00:34:31;13.30;99.90
23579;DHT22;11967;50.852;4.400;2023-11-21T00:36:57;13.30;99.90
23579;DHT22;11967;50.852;4.400;2023-11-21T00:39:23;13.30;99.90
23579;DHT22;11967;50.852;4.400;2023-11-21T00:41:49;13.40;99.90
23579;DHT22;11967;50.852;4.400;2023-11-21T00:44:15;13.40;99.90
23579;DHT22;11967;50.852;4.400;2023-11-21T00:46:41;13.30;99.90
23579;DHT22;11967;50.852;4.400;2023-11-21T00:49:07;13.20;99.90
23579;DHT22;11967;50.852;4.400;2023-11-21T00:51:33;13.20;99.90
23579;DHT22;11967;50.852;4.400;2023-11-21T00:53:59;13.30;99.90
23579;DHT22;11967;50.852;4.400;2023-11-21T00:56:25;13.30;99.90
23579;DHT22;11967;50.852;4.400;2023-11-21T00:58:50;13.30;99.90
23579;DHT22;11967;50.852;4.400;2023-11-21T01:01:18;13.30;99.90
23579;DHT22;11967;50.852;4.400;2023-11-21T01:03:48;13.20;99.90
23579;DHT22;11967;50.852;4.400;2023-11-21T01:06:15;13.10;99.90
23579;DHT22;11967;50.852;4.400;2023-11-21T01:08:40;13.10;99.90
23579;DHT22;11967;50.852;4.400;2023-11-21T01:11:06;13.10;99.90
23579;DHT22;11967;50.852;4.400;2023-11-21T01:13:34;13.10;99.90
23579;DHT22;11967;50.852;4.400;2023-11-21T01:16:00;13.10;99.90
23579;DHT22;11967;50.852;4.400;2023-11-21T01:18:26;13.00;99.90
23579;DHT22;11967;50.852;4.400;2023-11-21T01:20:52;13.00;99.90
23579;DHT22;11967;50.852;4.400;2023-11-21T01:23:19;13.00;99.90
23579;DHT22;11967;50.852;4.400;2023-11-21T01:25:45;13.10;99.90
23579;DHT22;11967;50.852;4.400;2023-11-21T01:28:11;13.00;99.90
23579;DHT22;11967;50.852;4.400;2023-11-21T01:30:37;13.00;99.90
23579;DHT22;11967;50.852;4.400;2023-11-21T01:33:03;12.90;99.90
23579;DHT22;11967;50.852;4.400;2023-11-21T01:35:29;12.90;99.90
23579;DHT22;11967;50.852;4.400;2023-11-21T01:37:55;12.90;99.90
23579;DHT22;11967;50.852;4.400;2023-11-21T01:40:21;12.90;99.90
23579;DHT22;11967;50.852;4.400;2023-11-21T01:42:46;13.00;99.90
23579;DHT22;11967;50.852;4.400;2023-11-21T01:45:13;13.00;99.90
23579;DHT22;11967;50.852;4.400;2023-11-21T01:47:41;13.10;99.90
23579;DHT22;11967;50.852;4.400;2023-11-21T01:50:13;13.10;99.90
23579;DHT22;11967;50.852;4.400;2023-11-21T01:52:39;13.10;99.90
23579;DHT22;11967;50.852;4.400;2023-11-21T01:55:07;13.00;99.90
23579;DHT22;11967;50.852;4.400;2023-11-21T01:57:38;13.10;99.90
23579;DHT22;11967;50.852;4.400;2023-11-21T02:00:04;13.10;99.90
23579;DHT22;11967;50.852;4.400;2023-11-21T02:02:44;13.10;99.90
23579;DHT22;11967;50.852;4.400;2023-11-21T02:05:15;13.00;99.90
23579;DHT22;11967;50.852;4.400;2023-11-21T02:07:42;12.90;99.90
23579;DHT22;11967;50.852;4.400;2023-11-21T02:10:08;12.90;99.90
23579;DHT22;11967;50.852;4.400;2023-11-21T02:12:34;12.90;99.90
23579;DHT22;11967;50.852;4.400;2023-11-21T02:15:02;13.00;99.90
23579;DHT22;11967;50.852;4.400;2023-11-21T02:17:31;13.00;99.90
23579;DHT22;11967;50.852;4.400;2023-11-21T02:19:58;13.00;99.90
23579;DHT22;11967;50.852;4.400;2023-11-21T02:22:26;13.00;99.90
23579;DHT22;11967;50.852;4.400;2023-11-21T02:24:54;13.00;99.90
23579;DHT22;11967;50.852;4.400;2023-11-21T02:27:19;13.00;99.90
23579;DHT22;11967;50.852;4.400;2023-11-21T02:29:47;13.10;99.90
23579;DHT22;11967;50.852;4.400;2023-11-21T02:32:13;13.10;99.90
23579;DHT22;11967;50.852;4.400;2023-11-21T02:34:38;13.00;99.90
23579;DHT22;11967;50.852;4.400;2023-11-21T02:37:04;13.00;99.90
23579;DHT22;11967;50.852;4.400;2023-11-21T02:39:31;13.00;99.90
23579;DHT22;11967;50.852;4.400;2023-11-21T02:41:57;12.90;99.90
23579;DHT22;11967;50.852;4.400;2023-11-21T02:44:24;13.00;99.90
23579;DHT22;11967;50.852;4.400;2023-11-21T02:46:49;13.00;99.90
23579;DHT22;11967;50.852;4.400;2023-11-21T02:49:15;12.90;99.90
23579;DHT22;11967;50.852;4.400;2023-11-21T02:51:40;12.90;99.90
23579;DHT22;11967;50.852;4.400;2023-11-21T02:54:06;12.90;99.90
23579;DHT22;11967;50.852;4.400;2023-11-21T02:56:33;12.90;99.90
23579;DHT22;11967;50.852;4.400;2023-11-21T02:59:00;13.00;99.90
23579;DHT22;11967;50.852;4.400;2023-11-21T03:01:26;13.00;99.90
23579;DHT22;11967;50.852;4.400;2023-11-21T03:03:53;12.90;99.90
23579;DHT22;11967;50.852;4.400;2023-11-21T03:06:22;12.90;99.90
23579;DHT22;11967;50.852;4.400;2023-11-21T03:08:48;12.90;99.90
23579;DHT22;11967;50.852;4.400;2023-11-21T03:11:14;13.00;99.90
23579;DHT22;11967;50.852;4.400;2023-11-21T03:13:40;13.00;99.90
23579;DHT22;11967;50.852;4.400;2023-11-21T03:16:10;13.00;99.90
23579;DHT22;11967;50.852;4.400;2023-11-21T03:18:37;13.10;99.90
23579;DHT22;11967;50.852;4.400;2023-11-21T03:21:04;13.10;99.90
23579;DHT22;11967;50.852;4.400;2023-11-21T03:23:30;13.00;99.90
23579;DHT22;11967;50.852;4.400;2023-11-21T03:25:56;13.10;99.90
23579;DHT22;11967;50.852;4.400;2023-11-21T03:28:21;13.10;99.90
23579;DHT22;11967;50.852;4.400;2023-11-21T03:30:47;13.10;99.90
23579;DHT22;11967;50.852;4.400;2023-11-21T03:33:12;13.10;99.90
23579;DHT22;11967;50.852;4.400;2023-11-21T03:35:38;13.10;99.90
23579;DHT22;11967;50.852;4.400;2023-11-21T03:38:04;13.00;99.90
23579;DHT22;11967;50.852;4.400;2023-11-21T03:40:30;13.00;99.90
23579;DHT22;11967;50.852;4.400;2023-11-21T03:42:57;13.10;99.90
23579;DHT22;11967;50.852;4.400;2023-11-21T03:45:23;13.10;99.90
23579;DHT22;11967;50.852;4.400;2023-11-21T03:47:49;13.10;99.90
23579;DHT22;11967;50.852;4.400;2023-11-21T03:50:15;13.10;99.90
23579;DHT22;11967;50.852;4.400;2023-11-21T03:52:40;13.10;99.90
23579;DHT22;11967;50.852;4.400;2023-11-21T03:55:06;13.10;99.90
23579;DHT22;11967;50.852;4.400;2023-11-21T03:57:32;13.10;99.90
23579;DHT22;11967;50.852;4.400;2023-11-21T03:59:57;13.10;99.90
23579;DHT22;11967;50.852;4.400;2023-11-21T04:02:24;13.20;99.90
23579;DHT22;11967;50.852;4.400;2023-11-21T04:04:52;13.20;99.90
23579;DHT22;11967;50.852;4.400;2023-11-21T04:07:18;13.20;99.90
23579;DHT22;11967;50.852;4.400;2023-11-21T04:09:44;13.10;99.90
23579;DHT22;11967;50.852;4.400;2023-11-21T04:12:10;13.10;99.90
23579;DHT22;11967;50.852;4.400;2023-11-21T04:14:35;13.10;99.90
23579;DHT22;11967;50.852;4.400;2023-11-21T04:17:01;13.00;99.90
23579;DHT22;11967;50.852;4.400;2023-11-21T04:19:27;13.00;99.90
23579;DHT22;11967;50.852;4.400;2023-11-21T04:21:52;13.20;99.90
23579;DHT22;11967;50.852;4.400;2023-11-21T04:24:18;13.20;99.90
23579;DHT22;11967;50.852;4.400;2023-11-21T04:26:44;13.40;99.90
23579;DHT22;11967;50.852;4.400;2023-11-21T04:29:10;13.40;99.90
23579;DHT22;11967;50.852;4.400;2023-11-21T04:31:35;13.30;99.90
23579;DHT22;11967;50.852;4.400;2023-11-21T04:34:01;13.20;99.90
23579;DHT22;11967;50.852;4.400;2023-11-21T04:36:29;13.30;99.90
23579;DHT22;11967;50.852;4.400;2023-11-21T04:38:56;13.20;99.90
23579;DHT22;11967;50.852;4.400;2023-11-21T04:41:22;13.30;99.90
23579;DHT22;11967;50.852;4.400;2023-11-21T04:43:47;13.20;99.90
23579;DHT22;11967;50.852;4.400;2023-11-21T04:46:13;13.20;99.90
23579;DHT22;11967;50.852;4.400;2023-11-21T04:48:39;13.20;99.90
23579;DHT22;11967;50.852;4.400;2023-11-21T04:51:04;13.20;99.90
23579;DHT22;11967;50.852;4.400;2023-11-21T04:53:30;13.10;99.90
23579;DHT22;11967;50.852;4.400;2023-11-21T04:55:56;13.10;99.90
23579;DHT22;11967;50.852;4.400;2023-11-21T04:58:21;13.30;99.90
23579;DHT22;11967;50.852;4.400;2023-11-21T05:00:47;13.20;99.90
23579;DHT22;11967;50.852;4.400;2023-11-21T05:03:12;13.20;99.90
23579;DHT22;11967;50.852;4.400;2023-11-21T05:05:38;13.20;99.90
23579;DHT22;11967;50.852;4.400;2023-11-21T05:08:04;13.20;99.90
23579;DHT22;11967;50.852;4.400;2023-11-21T05:10:30;13.10;99.90
23579;DHT22;11967;50.852;4.400;2023-11-21T05:12:56;13.10;99.90
23579;DHT22;11967;50.852;4.400;2023-11-21T05:15:21;13.10;99.90
23579;DHT22;11967;50.852;4.400;2023-11-21T05:17:48;13.10;99.90
23579;DHT22;11967;50.852;4.400;2023-11-21T05:20:16;13.10;99.90
23579;DHT22;11967;50.852;4.400;2023-11-21T05:22:49;13.10;99.90
23579;DHT22;11967;50.852;4.400;2023-11-21T05:25:16;13.10;99.90
23579;DHT22;11967;50.852;4.400;2023-11-21T05:27:44;13.10;99.90
23579;DHT22;11967;50.852;4.400;2023-11-21T05:30:10;13.10;99.90
23579;DHT22;11967;50.852;4.400;2023-11-21T05:32:38;13.10;99.90
23579;DHT22;11967;50.852;4.400;2023-11-21T05:35:04;13.10;99.90
23579;DHT22;11967;50.852;4.400;2023-11-21T05:37:36;13.10;99.90
23579;DHT22;11967;50.852;4.400;2023-11-21T05:40:03;13.20;99.90
23579;DHT22;11967;50.852;4.400;2023-11-21T05:42:31;13.20;99.90
23579;DHT22;11967;50.852;4.400;2023-11-21T05:44:57;13.20;99.90
23579;DHT22;11967;50.852;4.400;2023-11-21T05:47:25;13.20;99.90
23579;DHT22;11967;50.852;4.400;2023-11-21T05:49:53;13.20;99.90
23579;DHT22;11967;50.852;4.400;2023-11-21T05:52:19;13.20;99.90
23579;DHT22;11967;50.852;4.400;2023-11-21T05:54:46;13.20;99.90
23579;DHT22;11967;50.852;4.400;2023-11-21T05:57:11;13.20;99.90
23579;DHT22;11967;50.852;4.400;2023-11-21T05:59:37;13.20;99.90
23579;DHT22;11967;50.852;4.400;2023-11-21T06:02:02;13.10;99.90
23579;DHT22;11967;50.852;4.400;2023-11-21T06:04:28;13.20;99.90
23579;DHT22;11967;50.852;4.400;2023-11-21T06:06:54;13.10;99.90
23579;DHT22;11967;50.852;4.400;2023-11-21T06:09:20;13.20;99.90
23579;DHT22;11967;50.852;4.400;2023-11-21T06:11:48;13.20;99.90
23579;DHT22;11967;50.852;4.400;2023-11-21T06:14:14;13.20;99.90
23579;DHT22;11967;50.852;4.400;2023-11-21T06:16:43;13.20;99.90
23579;DHT22;11967;50.852;4.400;2023-11-21T06:19:10;13.20;99.90
23579;DHT22;11967;50.852;4.400;2023-11-21T06:21:36;13.20;99.90
23579;DHT22;11967;50.852;4.400;2023-11-21T06:24:02;13.20;99.90
23579;DHT22;11967;50.852;4.400;2023-11-21T06:26:27;13.20;99.90
23579;DHT22;11967;50.852;4.400;2023-11-21T06:28:53;13.20;99.90
23579;DHT22;11967;50.852;4.400;2023-11-21T06:31:19;13.20;99.90
23579;DHT22;11967;50.852;4.400;2023-11-21T06:33:45;13.20;99.90
23579;DHT22;11967;50.852;4.400;2023-11-21T06:36:10;13.30;99.90
23579;DHT22;11967;50.852;4.400;2023-11-21T06:38:39;13.20;99.90
23579;DHT22;11967;50.852;4.400;2023-11-21T06:41:05;13.30;99.90
23579;DHT22;11967;50.852;4.400;2023-11-21T06:43:31;13.30;99.90
23579;DHT22;11967;50.852;4.400;2023-11-21T06:45:57;13.20;99.90
23579;DHT22;11967;50.852;4.400;2023-11-21T06:48:22;13.30;99.90
23579;DHT22;11967;50.852;4.400;2023-11-21T06:50:48;13.30;99.90
23579;DHT22;11967;50.852;4.400;2023-11-21T06:53:14;13.30;99.90
23579;DHT22;11967;50.852;4.400;2023-11-21T06:55:40;13.30;99.90
23579;DHT22;11967;50.852;4.400;2023-11-21T06:58:06;13.30;99.90
23579;DHT22;11967;50.852;4.400;2023-11-21T07:00:32;13.20;99.90
23579;DHT22;11967;50.852;4.400;2023-11-21T07:02:57;13.30;99.90
23579;DHT22;11967;50.852;4.400;2023-11-21T07:05:23;13.40;99.90
23579;DHT22;11967;50.852;4.400;2023-11-21T07:07:50;13.60;99.90
23579;DHT22;11967;50.852;4.400;2023-11-21T07:10:16;13.60;99.90
23579;DHT22;11967;50.852;4.400;2023-11-21T07:12:42;13.50;99.90
23579;DHT22;11967;50.852;4.400;2023-11-21T07:15:08;13.50;99.90
23579;DHT22;11967;50.852;4.400;2023-11-21T07:17:36;13.50;99.90
23579;DHT22;11967;50.852;4.400;2023-11-21T07:20:03;13.50;99.90
23579;DHT22;11967;50.852;4.400;2023-11-21T07:22:28;13.40;99.90
23579;DHT22;11967;50.852;4.400;2023-11-21T07:24:55;13.40;99.90
23579;DHT22;11967;50.852;4.400;2023-11-21T07:27:23;13.40;99.90
23579;DHT22;11967;50.852;4.400;2023-11-21T07:29:49;13.40;99.90
23579;DHT22;11967;50.852;4.400;2023-11-21T07:32:14;13.40;99.90
23579;DHT22;11967;50.852;4.400;2023-11-21T07:34:40;13.40;99.90
23579;DHT22;11967;50.852;4.400;2023-11-21T07:37:07;13.40;99.90
23579;DHT22;11967;50.852;4.400;2023-11-21T07:39:34;13.40;99.90
23579;DHT22;11967;50.852;4.400;2023-11-21T07:42:01;13.50;99.90
23579;DHT22;11967;50.852;4.400;2023-11-21T07:44:29;13.60;99.90
23579;DHT22;11967;50.852;4.400;2023-11-21T07:46:54;13.50;99.90
23579;DHT22;11967;50.852;4.400;2023-11-21T07:49:23;13.50;99.90
23579;DHT22;11967;50.852;4.400;2023-11-21T07:51:49;13.50;99.90
23579;DHT22;11967;50.852;4.400;2023-11-21T07:54:15;13.50;99.90
23579;DHT22;11967;50.852;4.400;2023-11-21T07:56:42;13.50;99.90
23579;DHT22;11967;50.852;4.400;2023-11-21T07:59:08;13.50;99.90
23579;DHT22;11967;50.852;4.400;2023-11-21T08:01:33;13.40;99.90
23579;DHT22;11967;50.852;4.400;2023-11-21T08:03:59;13.40;99.90
23579;DHT22;11967;50.852;4.400;2023-11-21T08:06:31;13.60;99.90
23579;DHT22;11967;50.852;4.400;2023-11-21T08:08:58;13.70;99.90
23579;DHT22;11967;50.852;4.400;2023-11-21T08:11:24;13.60;99.90
23579;DHT22;11967;50.852;4.400;2023-11-21T08:13:50;13.70;99.90
23579;DHT22;11967;50.852;4.400;2023-11-21T08:16:15;13.70;99.90
23579;DHT22;11967;50.852;4.400;2023-11-21T08:18:42;13.60;99.90
23579;DHT22;11967;50.852;4.400;2023-11-21T08:21:08;13.60;99.90
23579;DHT22;11967;50.852;4.400;2023-11-21T08:23:34;13.50;99.90
23579;DHT22;11967;50.852;4.400;2023-11-21T08:26:00;13.60;99.90
23579;DHT22;11967;50.852;4.400;2023-11-21T08:28:28;13.60;99.90
23579;DHT22;11967;50.852;4.400;2023-11-21T08:30:54;13.60;99.90
23579;DHT22;11967;50.852;4.400;2023-11-21T08:33:20;13.60;99.90
23579;DHT22;11967;50.852;4.400;2023-11-21T08:35:46;13.70;99.90
23579;DHT22;11967;50.852;4.400;2023-11-21T08:38:15;13.60;99.90
23579;DHT22;11967;50.852;4.400;2023-11-21T08:40:40;13.60;99.90
23579;DHT22;11967;50.852;4.400;2023-11-21T08:43:06;13.60;99.90
23579;DHT22;11967;50.852;4.400;2023-11-21T08:45:32;13.60;99.90
23579;DHT22;11967;50.852;4.400;2023-11-21T08:48:00;13.60;99.90
23579;DHT22;11967;50.852;4.400;2023-11-21T08:50:25;13.70;99.90
23579;DHT22;11967;50.852;4.400;2023-11-21T08:52:51;13.60;99.90
23579;DHT22;11967;50.852;4.400;2023-11-21T08:55:18;13.70;99.90
23579;DHT22;11967;50.852;4.400;2023-11-21T08:57:45;13.60;99.90
23579;DHT22;11967;50.852;4.400;2023-11-21T09:00:14;13.60;99.90
23579;DHT22;11967;50.852;4.400;2023-11-21T09:02:44;13.60;99.90
23579;DHT22;11967;50.852;4.400;2023-11-21T09:05:13;13.60;99.90
23579;DHT22;11967;50.852;4.400;2023-11-21T09:07:40;13.60;99.90
23579;DHT22;11967;50.852;4.400;2023-11-21T09:10:07;13.60;99.90
23579;DHT22;11967;50.852;4.400;2023-11-21T09:12:35;13.70;99.90
23579;DHT22;11967;50.852;4.400;2023-11-21T09:15:02;13.70;99.90
23579;DHT22;11967;50.852;4.400;2023-11-21T09:17:30;13.60;99.90
23579;DHT22;11967;50.852;4.400;2023-11-21T09:19:55;13.60;99.90
23579;DHT22;11967;50.852;4.400;2023-11-21T09:22:22;13.60;99.90
23579;DHT22;11967;50.852;4.400;2023-11-21T09:24:50;13.60;99.90
23579;DHT22;11967;50.852;4.400;2023-11-21T09:27:16;13.60;99.90
23579;DHT22;11967;50.852;4.400;2023-11-21T09:29:42;13.60;99.90
23579;DHT22;11967;50.852;4.400;2023-11-21T09:32:11;13.60;99.90
23579;DHT22;11967;50.852;4.400;2023-11-21T09:34:39;13.70;99.90
23579;DHT22;11967;50.852;4.400;2023-11-21T09:37:05;13.70;99.90
23579;DHT22;11967;50.852;4.400;2023-11-21T09:39:32;13.70;99.90
23579;DHT22;11967;50.852;4.400;2023-11-21T09:42:10;13.80;99.90
23579;DHT22;11967;50.852;4.400;2023-11-21T09:44:44;13.70;99.90
23579;DHT22;11967;50.852;4.400;2023-11-21T09:47:15;13.70;99.90
23579;DHT22;11967;50.852;4.400;2023-11-21T09:49:47;13.80;99.90
23579;DHT22;11967;50.852;4.400;2023-11-21T09:52:33;13.80;99.90
23579;DHT22;11967;50.852;4.400;2023-11-21T09:55:05;13.80;99.90
23579;DHT22;11967;50.852;4.400;2023-11-21T09:57:31;13.90;99.90
23579;DHT22;11967;50.852;4.400;2023-11-21T10:00:01;13.90;99.90
23579;DHT22;11967;50.852;4.400;2023-11-21T10:02:33;14.00;99.90
23579;DHT22;11967;50.852;4.400;2023-11-21T10:05:02;14.00;99.90
23579;DHT22;11967;50.852;4.400;2023-11-21T10:07:31;14.00;99.90
23579;DHT22;11967;50.852;4.400;2023-11-21T10:09:59;14.00;99.90
23579;DHT22;11967;50.852;4.400;2023-11-21T10:12:27;14.00;99.90
23579;DHT22;11967;50.852;4.400;2023-11-21T10:14:54;13.90;99.90
23579;DHT22;11967;50.852;4.400;2023-11-21T10:17:24;13.90;99.90
23579;DHT22;11967;50.852;4.400;2023-11-21T10:19:53;13.90;99.90
23579;DHT22;11967;50.852;4.400;2023-11-21T10:22:22;13.90;99.90
23579;DHT22;11967;50.852;4.400;2023-11-21T10:24:48;14.00;99.90
23579;DHT22;11967;50.852;4.400;2023-11-21T10:27:14;14.00;99.90
23579;DHT22;11967;50.852;4.400;2023-11-21T10:29:40;14.00;99.90
23579;DHT22;11967;50.852;4.400;2023-11-21T10:32:07;13.90;99.90
23579;DHT22;11967;50.852;4.400;2023-11-21T10:34:34;14.00;99.90
23579;DHT22;11967;50.852;4.400;2023-11-21T10:37:13;14.00;99.90
23579;DHT22;11967;50.852;4.400;2023-11-21T10:39:41;14.00;99.90
23579;DHT22;11967;50.852;4.400;2023-11-21T10:42:09;14.10;99.90
23579;DHT22;11967;50.852;4.400;2023-11-21T10:44:35;14.20;99.90
23579;DHT22;11967;50.852;4.400;2023-11-21T10:47:01;14.20;99.90
23579;DHT22;11967;50.852;4.400;2023-11-21T10:49:27;14.10;99.90
23579;DHT22;11967;50.852;4.400;2023-11-21T10:51:54;14.20;99.90
23579;DHT22;11967;50.852;4.400;2023-11-21T10:54:24;14.30;99.90
23579;DHT22;11967;50.852;4.400;2023-11-21T10:56:55;14.20;99.90
23579;DHT22;11967;50.852;4.400;2023-11-21T10:59:22;14.20;99.90
23579;DHT22;11967;50.852;4.400;2023-11-21T11:01:52;14.20;99.90
23579;DHT22;11967;50.852;4.400;2023-11-21T11:04:19;14.30;99.90
23579;DHT22;11967;50.852;4.400;2023-11-21T11:06:54;14.30;99.90
23579;DHT22;11967;50.852;4.400;2023-11-21T11:09:20;14.30;99.90
23579;DHT22;11967;50.852;4.400;2023-11-21T11:11:46;14.30;99.90
23579;DHT22;11967;50.852;4.400;2023-11-21T11:14:13;14.30;99.90
23579;DHT22;11967;50.852;4.400;2023-11-21T11:16:40;14.30;99.90
23579;DHT22;11967;50.852;4.400;2023-11-21T11:19:09;14.40;99.90
23579;DHT22;11967;50.852;4.400;2023-11-21T11:22:04;14.40;99.90
23579;DHT22;11967;50.852;4.400;2023-11-21T11:24:52;14.50;99.90
23579;DHT22;11967;50.852;4.400;2023-11-21T11:30:31;14.40;99.90
23579;DHT22;11967;50.852;4.400;2023-11-21T11:33:23;14.40;99.90
23579;DHT22;11967;50.852;4.400;2023-11-21T11:36:04;14.40;99.90
23579;DHT22;11967;50.852;4.400;2023-11-21T11:38:32;14.30;99.90
23579;DHT22;11967;50.852;4.400;2023-11-21T11:41:05;14.40;99.90
23579;DHT22;11967;50.852;4.400;2023-11-21T11:43:31;14.40;99.90
23579;DHT22;11967;50.852;4.400;2023-11-21T11:46:10;14.50;99.90
23579;DHT22;11967;50.852;4.400;2023-11-21T11:48:40;14.60;99.90
23579;DHT22;11967;50.852;4.400;2023-11-21T11:51:13;14.50;99.90
23579;DHT22;11967;50.852;4.400;2023-11-21T11:53:44;14.50;99.90
23579;DHT22;11967;50.852;4.400;2023-11-21T11:56:30;14.50;99.90
23579;DHT22;11967;50.852;4.400;2023-11-21T11:59:02;14.50;99.90
23579;DHT22;11967;50.852;4.400;2023-11-21T12:01:28;14.50;99.90
23579;DHT22;11967;50.852;4.400;2023-11-21T12:06:46;14.50;99.90
23579;DHT22;11967;50.852;4.400;2023-11-21T12:09:21;14.60;99.90
23579;DHT22;11967;50.852;4.400;2023-11-21T12:11:48;14.70;99.90
23579;DHT22;11967;50.852;4.400;2023-11-21T12:14:15;14.60;99.90
23579;DHT22;11967;50.852;4.400;2023-11-21T12:16:43;14.60;99.90
23579;DHT22;11967;50.852;4.400;2023-11-21T12:19:10;14.60;99.90
23579;DHT22;11967;50.852;4.400;2023-11-21T12:21:36;14.60;99.90
23579;DHT22;11967;50.852;4.400;2023-11-21T12:24:02;14.60;99.90
23579;DHT22;11967;50.852;4.400;2023-11-21T12:26:28;14.60;99.90
23579;DHT22;11967;50.852;4.400;2023-11-21T12:28:54;14.60;99.90
23579;DHT22;11967;50.852;4.400;2023-11-21T12:31:23;14.70;99.90
23579;DHT22;11967;50.852;4.400;2023-11-21T12:33:48;14.70;99.90
23579;DHT22;11967;50.852;4.400;2023-11-21T12:36:15;14.70;99.90
23579;DHT22;11967;50.852;4.400;2023-11-21T12:38:41;14.60;99.90
23579;DHT22;11967;50.852;4.400;2023-11-21T12:41:07;14.60;99.90
23579;DHT22;11967;50.852;4.400;2023-11-21T12:43:33;14.60;99.90
23579;DHT22;11967;50.852;4.400;2023-11-21T12:48:33;14.60;99.90
23579;DHT22;11967;50.852;4.400;2023-11-21T12:50:58;14.60;99.90
23579;DHT22;11967;50.852;4.400;2023-11-21T12:53:26;14.70;99.90
23579;DHT22;11967;50.852;4.400;2023-11-21T12:55:51;14.80;99.90
23579;DHT22;11967;50.852;4.400;2023-11-21T12:58:22;14.70;99.90
23579;DHT22;11967;50.852;4.400;2023-11-21T13:00:50;14.70;99.90
23579;DHT22;11967;50.852;4.400;2023-11-21T13:03:19;14.80;99.90
23579;DHT22;11967;50.852;4.400;2023-11-21T13:05:49;14.80;99.90
23579;DHT22;11967;50.852;4.400;2023-11-21T13:08:20;14.80;99.90
23579;DHT22;11967;50.852;4.400;2023-11-21T13:10:51;14.70;99.90
23579;DHT22;11967;50.852;4.400;2023-11-21T13:13:17;14.70;99.90
23579;DHT22;11967;50.852;4.400;2023-11-21T13:15:53;14.70;99.90
23579;DHT22;11967;50.852;4.400;2023-11-21T13:18:22;14.70;99.90
23579;DHT22;11967;50.852;4.400;2023-11-21T13:20:48;14.60;99.90
23579;DHT22;11967;50.852;4.400;2023-11-21T13:23:15;14.60;99.90
23579;DHT22;11967;50.852;4.400;2023-11-21T13:25:44;14.70;99.90
23579;DHT22;11967;50.852;4.400;2023-11-21T13:28:14;14.70;99.90
23579;DHT22;11967;50.852;4.400;2023-11-21T13:30:44;14.90;99.90
23579;DHT22;11967;50.852;4.400;2023-11-21T13:33:10;15.00;99.90
23579;DHT22;11967;50.852;4.400;2023-11-21T13:35:39;15.10;99.90
23579;DHT22;11967;50.852;4.400;2023-11-21T13:38:13;15.10;99.90
23579;DHT22;11967;50.852;4.400;2023-11-21T13:40:40;15.10;99.90
23579;DHT22;11967;50.852;4.400;2023-11-21T13:43:10;14.90;99.90
23579;DHT22;11967;50.852;4.400;2023-11-21T13:45:40;14.80;99.90
23579;DHT22;11967;50.852;4.400;2023-11-21T13:48:06;14.70;99.90
23579;DHT22;11967;50.852;4.400;2023-11-21T13:50:45;14.60;99.90
23579;DHT22;11967;50.852;4.400;2023-11-21T13:53:21;14.60;99.90
23579;DHT22;11967;50.852;4.400;2023-11-21T13:55:54;14.60;99.90
23579;DHT22;11967;50.852;4.400;2023-11-21T13:58:21;14.60;99.90
23579;DHT22;11967;50.852;4.400;2023-11-21T14:00:50;14.60;99.90
23579;DHT22;11967;50.852;4.400;2023-11-21T14:03:23;14.60;99.90
23579;DHT22;11967;50.852;4.400;2023-11-21T14:05:51;14.60;99.90
23579;DHT22;11967;50.852;4.400;2023-11-21T14:08:25;14.60;99.90
23579;DHT22;11967;50.852;4.400;2023-11-21T14:10:54;14.60;99.90
23579;DHT22;11967;50.852;4.400;2023-11-21T14:13:25;14.60;99.90
23579;DHT22;11967;50.852;4.400;2023-11-21T14:15:51;14.60;99.90
23579;DHT22;11967;50.852;4.400;2023-11-21T14:18:26;14.60;99.90
23579;DHT22;11967;50.852;4.400;2023-11-21T14:21:16;14.60;99.90
23579;DHT22;11967;50.852;4.400;2023-11-21T14:23:42;14.50;99.90
23579;DHT22;11967;50.852;4.400;2023-11-21T14:26:08;14.60;99.90
23579;DHT22;11967;50.852;4.400;2023-11-21T14:28:34;14.50;99.90
23579;DHT22;11967;50.852;4.400;2023-11-21T14:31:01;14.40;99.90
23579;DHT22;11967;50.852;4.400;2023-11-21T14:33:28;14.40;99.90
23579;DHT22;11967;50.852;4.400;2023-11-21T14:35:54;14.50;99.90
23579;DHT22;11967;50.852;4.400;2023-11-21T14:38:20;14.50;99.90
23579;DHT22;11967;50.852;4.400;2023-11-21T14:40:45;14.50;99.90
23579;DHT22;11967;50.852;4.400;2023-11-21T14:43:12;14.40;99.90
23579;DHT22;11967;50.852;4.400;2023-11-21T14:45:38;14.40;99.90
23579;DHT22;11967;50.852;4.400;2023-11-21T14:48:04;14.40;99.90
23579;DHT22;11967;50.852;4.400;2023-11-21T14:50:30;14.50;99.90
23579;DHT22;11967;50.852;4.400;2023-11-21T14:53:12;14.40;99.90
23579;DHT22;11967;50.852;4.400;2023-11-21T14:55:40;14.40;99.90
23579;DHT22;11967;50.852;4.400;2023-11-21T14:58:16;14.40;99.90
23579;DHT22;11967;50.852;4.400;2023-11-21T15:00:55;14.40;99.90
23579;DHT22;11967;50.852;4.400;2023-11-21T15:03:28;14.40;99.90
23579;DHT22;11967;50.852;4.400;2023-11-21T15:06:03;14.50;99.90
23579;DHT22;11967;50.852;4.400;2023-11-21T15:08:52;14.40;99.90
23579;DHT22;11967;50.852;4.400;2023-11-21T15:11:34;14.40;99.90
23579;DHT22;11967;50.852;4.400;2023-11-21T15:14:00;14.50;99.90
23579;DHT22;11967;50.852;4.400;2023-11-21T15:16:26;14.50;99.90
23579;DHT22;11967;50.852;4.400;2023-11-21T15:18:52;14.50;99.90
23579;DHT22;11967;50.852;4.400;2023-11-21T15:21:21;14.40;99.90
23579;DHT22;11967;50.852;4.400;2023-11-21T15:23:48;14.40;99.90
23579;DHT22;11967;50.852;4.400;2023-11-21T15:26:13;14.40;99.90
23579;DHT22;11967;50.852;4.400;2023-11-21T15:28:39;14.40;99.90
23579;DHT22;11967;50.852;4.400;2023-11-21T15:31:05;14.40;99.90
23579;DHT22;11967;50.852;4.400;2023-11-21T15:33:33;14.50;99.90
23579;DHT22;11967;50.852;4.400;2023-11-21T15:36:01;14.50;99.90
23579;DHT22;11967;50.852;4.400;2023-11-21T15:38:27;14.50;99.90
23579;DHT22;11967;50.852;4.400;2023-11-21T15:40:53;14.50;99.90